createdAt,value
2019-03-25T00:01:47.946Z,5.89
2019-03-25T00:04:20.542Z,5.87
2019-03-25T00:06:53.503Z,5.90
2019-03-25T00:09:26.104Z,5.89
2019-03-25T00:11:58.677Z,5.86
2019-03-25T00:14:31.260Z,5.89
2019-03-25T00:17:04.348Z,5.88
2019-03-25T00:19:37.956Z,5.88
2019-03-25T00:22:10.994Z,5.86
2019-03-25T00:24:43.650Z,5.79
2019-03-25T00:27:16.275Z,5.79
2019-03-25T00:29:48.871Z,5.75
2019-03-25T00:32:21.487Z,5.67
2019-03-25T00:34:54.186Z,5.57
2019-03-25T00:37:27.010Z,5.56
2019-03-25T00:39:59.603Z,5.60
2019-03-25T00:42:32.204Z,5.65
2019-03-25T00:45:04.907Z,5.67
2019-03-25T00:47:37.557Z,5.71
2019-03-25T00:50:10.393Z,5.73
2019-03-25T00:52:43.056Z,5.73
2019-03-25T00:55:15.709Z,5.75
2019-03-25T00:57:48.286Z,5.76
2019-03-25T01:00:21.589Z,5.77
2019-03-25T01:02:54.149Z,5.76
2019-03-25T01:05:26.871Z,5.73
2019-03-25T01:07:59.800Z,5.71
2019-03-25T01:10:33.278Z,5.67
2019-03-25T01:13:05.846Z,5.72
2019-03-25T01:15:38.447Z,5.74
2019-03-25T01:18:16.907Z,5.72
2019-03-25T01:20:45.391Z,5.71
2019-03-25T01:23:18.250Z,5.66
2019-03-25T01:25:50.846Z,5.61
2019-03-25T01:28:23.426Z,5.60
2019-03-25T01:30:56.002Z,5.59
2019-03-25T01:33:28.548Z,5.56
2019-03-25T01:36:01.227Z,5.55
2019-03-25T01:38:33.987Z,5.55
2019-03-25T01:41:06.595Z,5.53
2019-03-25T01:43:39.189Z,5.55
2019-03-25T01:46:11.756Z,5.55
2019-03-25T01:48:44.666Z,5.55
2019-03-25T01:51:18.348Z,5.54
2019-03-25T01:53:51.269Z,5.54
2019-03-25T01:56:24.165Z,5.55
2019-03-25T01:58:56.765Z,5.53
2019-03-25T02:01:29.344Z,5.53
2019-03-25T02:04:03.168Z,5.52
2019-03-25T02:06:35.776Z,5.51
2019-03-25T02:09:10.383Z,5.48
2019-03-25T02:11:42.995Z,5.49
2019-03-25T02:14:15.539Z,5.47
2019-03-25T02:16:48.415Z,5.46
2019-03-25T02:19:20.982Z,5.47
2019-03-25T02:21:53.556Z,5.46
2019-03-25T02:24:26.528Z,5.42
2019-03-25T02:26:59.147Z,5.39
2019-03-25T02:29:31.734Z,5.40
2019-03-25T02:32:04.366Z,5.36
2019-03-25T02:34:38.212Z,5.32
2019-03-25T02:37:10.794Z,5.30
2019-03-25T02:39:43.403Z,5.26
2019-03-25T02:42:16.047Z,5.23
2019-03-25T02:44:48.688Z,5.22
2019-03-25T02:47:21.689Z,5.20
2019-03-25T02:49:54.399Z,5.19
2019-03-25T02:52:26.982Z,5.18
2019-03-25T02:54:59.890Z,5.19
2019-03-25T02:57:32.970Z,5.15
2019-03-25T03:00:07.509Z,5.13
2019-03-25T03:02:40.198Z,5.09
2019-03-25T03:05:13.085Z,5.08
2019-03-25T03:07:45.713Z,5.04
2019-03-25T03:10:18.477Z,5.00
2019-03-25T03:12:51.156Z,5.01
2019-03-25T03:15:23.835Z,5.01
2019-03-25T03:17:56.471Z,5.01
2019-03-25T03:20:29.079Z,5.03
2019-03-25T03:23:01.693Z,5.03
2019-03-25T03:25:34.949Z,5.03
2019-03-25T03:28:07.841Z,5.04
2019-03-25T03:30:40.814Z,5.04
2019-03-25T03:33:13.761Z,5.03
2019-03-25T03:35:46.752Z,5.01
2019-03-25T03:38:19.624Z,5.00
2019-03-25T03:40:52.388Z,4.97
2019-03-25T03:43:24.965Z,4.95
2019-03-25T03:45:57.587Z,4.93
2019-03-25T03:48:30.315Z,4.91
2019-03-25T03:51:03.671Z,4.90
2019-03-25T03:53:36.605Z,4.90
2019-03-25T03:56:13.231Z,4.92
2019-03-25T03:58:46.148Z,4.92
2019-03-25T04:01:18.794Z,4.91
2019-03-25T04:03:51.366Z,4.92
2019-03-25T04:06:23.966Z,4.94
2019-03-25T04:08:56.516Z,4.93
2019-03-25T04:11:29.421Z,4.96
2019-03-25T04:14:02.377Z,4.89
2019-03-25T04:16:36.089Z,4.93
2019-03-25T04:19:12.797Z,4.92
2019-03-25T04:21:45.385Z,4.91
2019-03-25T04:24:18.933Z,4.96
2019-03-25T04:26:51.895Z,4.96
2019-03-25T04:29:24.521Z,4.97
2019-03-25T04:31:57.080Z,4.97
2019-03-25T04:34:29.665Z,4.97
2019-03-25T04:37:02.239Z,4.95
2019-03-25T04:39:37.901Z,4.95
2019-03-25T04:42:10.905Z,4.92
2019-03-25T04:44:43.567Z,4.95
2019-03-25T04:47:16.159Z,4.95
2019-03-25T04:49:50.997Z,4.98
2019-03-25T04:52:23.610Z,5.02
2019-03-25T04:54:56.241Z,4.99
2019-03-25T04:57:29.017Z,4.92
2019-03-25T05:00:01.637Z,4.89
2019-03-25T05:02:37.214Z,4.95
2019-03-25T05:05:10.802Z,4.99
2019-03-25T05:07:43.486Z,5.00
2019-03-25T05:10:16.670Z,5.00
2019-03-25T05:12:49.715Z,5.02
2019-03-25T05:15:22.347Z,5.06
2019-03-25T05:17:54.927Z,5.08
2019-03-25T05:20:28.653Z,5.13
2019-03-25T05:23:01.285Z,5.18
2019-03-25T05:25:33.840Z,5.23
2019-03-25T05:28:06.471Z,5.28
2019-03-25T05:30:39.075Z,5.31
2019-03-25T05:33:11.662Z,5.37
2019-03-25T05:35:46.754Z,5.41
2019-03-25T05:38:18.601Z,5.43
2019-03-25T05:40:51.220Z,5.47
2019-03-25T05:43:25.106Z,5.55
2019-03-25T05:45:57.673Z,5.61
2019-03-25T05:48:30.267Z,5.68
2019-03-25T05:51:02.887Z,5.71
2019-03-25T05:53:35.667Z,5.73
2019-03-25T05:56:08.252Z,5.78
2019-03-25T05:58:41.002Z,5.85
2019-03-25T06:01:13.787Z,5.94
2019-03-25T06:03:49.448Z,6.06
2019-03-25T06:06:23.401Z,6.13
2019-03-25T06:08:55.987Z,6.17
2019-03-25T06:11:28.567Z,6.25
2019-03-25T06:14:01.186Z,6.29
2019-03-25T06:16:33.792Z,6.35
2019-03-25T06:19:13.271Z,6.43
2019-03-25T06:21:45.940Z,6.41
2019-03-25T06:24:18.476Z,6.45
2019-03-25T06:26:51.396Z,6.43
2019-03-25T06:29:24.196Z,6.49
2019-03-25T06:31:56.785Z,6.57
2019-03-25T06:34:29.357Z,6.62
2019-03-25T06:37:01.966Z,6.66
2019-03-25T06:39:37.278Z,6.68
2019-03-25T06:42:12.294Z,6.75
2019-03-25T06:44:44.989Z,6.83
2019-03-25T06:47:17.662Z,6.92
2019-03-25T06:49:50.266Z,7.01
2019-03-25T06:52:22.849Z,7.15
2019-03-25T06:54:55.446Z,7.27
2019-03-25T06:57:28.055Z,7.39
2019-03-25T07:00:00.752Z,7.49
2019-03-25T07:02:33.646Z,7.62
2019-03-25T07:05:07.462Z,7.67
2019-03-25T07:07:41.121Z,7.56
2019-03-25T07:10:18.877Z,7.58
2019-03-25T07:12:52.661Z,7.71
2019-03-25T07:15:29.737Z,7.83
2019-03-25T07:18:02.371Z,7.78
2019-03-25T07:20:35.051Z,7.93
2019-03-25T07:23:07.653Z,7.97
2019-03-25T07:25:40.216Z,7.97
2019-03-25T07:28:12.815Z,7.96
2019-03-25T07:30:45.507Z,8.10
2019-03-25T07:33:19.132Z,8.39
2019-03-25T07:35:51.702Z,8.64
2019-03-25T07:38:24.300Z,8.59
2019-03-25T07:40:57.087Z,8.66
2019-03-25T07:43:29.782Z,8.80
2019-03-25T07:46:02.794Z,8.89
2019-03-25T07:48:36.546Z,8.96
2019-03-25T07:51:09.178Z,8.91
2019-03-25T07:53:41.795Z,8.87
2019-03-25T07:56:14.508Z,8.97
2019-03-25T07:58:47.281Z,9.11
2019-03-25T08:01:20.213Z,9.09
2019-03-25T08:03:52.917Z,9.25
2019-03-25T08:06:25.505Z,9.46
2019-03-25T08:09:03.604Z,9.61
2019-03-25T08:11:32.478Z,9.81
2019-03-25T08:14:05.275Z,9.92
2019-03-25T08:16:37.964Z,10.05
2019-03-25T08:19:10.646Z,10.24
2019-03-25T08:21:43.198Z,10.41
2019-03-25T08:24:15.841Z,10.66
2019-03-25T08:26:48.737Z,10.66
2019-03-25T08:29:21.525Z,10.59
2019-03-25T08:31:54.301Z,10.58
2019-03-25T08:34:26.938Z,10.59
2019-03-25T08:36:59.762Z,10.50
2019-03-25T08:39:32.325Z,10.51
2019-03-25T08:42:04.926Z,10.48
2019-03-25T08:44:37.539Z,10.41
2019-03-25T08:47:10.650Z,10.43
2019-03-25T08:49:43.265Z,10.56
2019-03-25T08:52:15.887Z,10.51
2019-03-25T08:54:48.575Z,10.28
2019-03-25T08:57:21.199Z,10.25
2019-03-25T08:59:53.837Z,10.51
2019-03-25T09:02:26.632Z,10.66
2019-03-25T09:04:59.278Z,10.82
2019-03-25T09:07:31.858Z,10.88
2019-03-25T09:10:04.793Z,10.87
2019-03-25T09:12:37.401Z,11.06
2019-03-25T09:15:11.332Z,11.11
2019-03-25T09:17:44.466Z,11.01
2019-03-25T09:20:18.728Z,10.84
2019-03-25T09:22:51.450Z,10.80
2019-03-25T09:25:24.546Z,10.74
2019-03-25T09:27:58.697Z,10.71
2019-03-25T09:31:20.103Z,10.72
2019-03-25T09:33:53.248Z,10.85
2019-03-25T09:36:25.860Z,11.07
2019-03-25T09:38:58.449Z,11.12
2019-03-25T09:41:31.012Z,11.20
2019-03-25T09:44:03.594Z,11.44
2019-03-25T09:46:36.196Z,11.52
2019-03-25T09:49:09.059Z,11.89
2019-03-25T09:51:41.703Z,12.29
2019-03-25T09:54:14.294Z,12.81
2019-03-25T09:56:46.904Z,13.13
2019-03-25T09:59:19.542Z,12.62
2019-03-25T10:01:52.277Z,11.42
2019-03-25T10:08:31.277Z,12.66
2019-03-25T10:11:03.855Z,12.57
2019-03-25T10:13:36.497Z,12.23
2019-03-25T10:16:09.077Z,11.86
2019-03-25T10:18:41.682Z,12.11
2019-03-25T10:21:14.250Z,12.08
2019-03-25T10:23:47.206Z,12.16
2019-03-25T10:26:19.807Z,12.41
2019-03-25T10:28:52.375Z,12.49
2019-03-25T10:31:24.975Z,12.34
2019-03-25T10:33:57.547Z,12.19
2019-03-25T10:36:31.692Z,12.32
2019-03-25T10:39:06.333Z,12.27
2019-03-25T10:41:38.987Z,12.20
2019-03-25T10:44:11.677Z,12.19
2019-03-25T10:46:44.378Z,11.48
2019-03-25T10:49:16.943Z,11.94
2019-03-25T10:51:49.782Z,12.23
2019-03-25T10:54:24.253Z,11.91
2019-03-25T10:56:56.950Z,11.60
2019-03-25T10:59:29.775Z,11.35
2019-03-25T11:02:02.424Z,11.41
2019-03-25T11:04:35.488Z,11.45
2019-03-25T11:07:08.173Z,12.05
2019-03-25T11:09:41.317Z,12.47
2019-03-25T11:12:13.945Z,12.38
2019-03-25T11:14:46.567Z,12.50
2019-03-25T11:17:19.137Z,12.44
2019-03-25T11:19:51.770Z,12.82
2019-03-25T11:22:24.346Z,12.25
2019-03-25T11:24:57.004Z,11.37
2019-03-25T11:27:29.628Z,10.83
2019-03-25T11:30:02.250Z,11.14
2019-03-25T11:32:34.890Z,11.78
2019-03-25T11:35:08.123Z,11.93
2019-03-25T11:37:40.693Z,12.15
2019-03-25T11:40:15.180Z,12.05
2019-03-25T11:42:47.783Z,12.02
2019-03-25T11:45:20.480Z,12.05
2019-03-25T11:47:53.129Z,12.05
2019-03-25T11:50:25.761Z,12.23
2019-03-25T11:52:59.593Z,12.53
2019-03-25T11:55:32.165Z,12.74
2019-03-25T11:58:04.720Z,12.83
2019-03-25T12:00:37.402Z,12.89
2019-03-25T12:03:10.106Z,12.78
2019-03-25T12:05:42.687Z,12.95
2019-03-25T12:08:15.405Z,12.75
2019-03-25T12:10:48.007Z,13.25
2019-03-25T12:13:20.639Z,12.23
2019-03-25T12:15:53.246Z,12.31
2019-03-25T12:18:25.819Z,12.27
2019-03-25T12:20:58.450Z,11.50
2019-03-25T12:23:31.044Z,11.44
2019-03-25T12:26:03.607Z,11.93
2019-03-25T12:28:36.251Z,11.70
2019-03-25T12:31:08.834Z,12.19
2019-03-25T12:33:41.443Z,12.47
2019-03-25T12:36:14.000Z,12.46
2019-03-25T12:38:46.549Z,13.25
2019-03-25T12:41:19.417Z,13.71
2019-03-25T12:43:52.026Z,13.98
2019-03-25T12:46:24.891Z,13.86
2019-03-25T12:48:57.517Z,13.63
2019-03-25T12:51:31.354Z,13.59
2019-03-25T12:54:03.978Z,13.52
2019-03-25T12:56:36.823Z,14.84
2019-03-25T12:59:09.415Z,15.84
2019-03-25T13:01:52.446Z,15.15
2019-03-25T13:04:16.846Z,13.82
2019-03-25T13:06:49.438Z,12.57
2019-03-25T13:09:21.997Z,11.54
2019-03-25T13:11:54.792Z,11.60
2019-03-25T13:14:27.384Z,11.73
2019-03-25T13:16:59.989Z,11.63
2019-03-25T13:19:32.559Z,11.90
2019-03-25T13:22:05.250Z,11.67
2019-03-25T13:24:37.955Z,11.90
2019-03-25T13:27:10.867Z,12.35
2019-03-25T13:29:52.067Z,12.19
2019-03-25T13:32:17.858Z,14.47
2019-03-25T13:34:50.475Z,15.65
2019-03-25T13:37:23.153Z,16.27
2019-03-25T13:39:55.761Z,19.97
2019-03-25T13:42:28.737Z,23.52
2019-03-25T13:45:01.351Z,26.98
2019-03-25T13:47:35.331Z,29.09
2019-03-25T13:50:08.797Z,30.20
2019-03-25T13:52:41.451Z,28.45
2019-03-25T13:55:14.097Z,25.15
2019-03-25T13:57:47.031Z,21.80
2019-03-25T14:00:36.781Z,19.42
2019-03-25T14:03:09.629Z,18.46
2019-03-25T14:05:42.248Z,16.20
2019-03-25T14:08:15.091Z,15.07
2019-03-25T14:10:47.691Z,13.84
2019-03-25T14:13:20.455Z,13.51
2019-03-25T14:15:53.034Z,13.04
2019-03-25T14:18:26.015Z,12.15
2019-03-25T14:20:58.584Z,11.14
2019-03-25T14:23:31.704Z,10.78
2019-03-25T14:26:04.280Z,10.59
2019-03-25T14:28:37.169Z,10.13
2019-03-25T14:31:09.724Z,9.87
2019-03-25T14:33:42.502Z,9.46
2019-03-25T14:36:15.187Z,9.31
2019-03-25T14:38:47.873Z,9.01
2019-03-25T14:41:20.474Z,8.98
2019-03-25T14:43:53.157Z,9.12
2019-03-25T14:46:25.812Z,9.22
2019-03-25T14:48:58.493Z,9.50
2019-03-25T14:51:31.114Z,9.33
2019-03-25T14:54:03.723Z,9.09
2019-03-25T14:56:36.323Z,8.79
2019-03-25T14:59:09.418Z,8.38
2019-03-25T15:01:42.066Z,8.24
2019-03-25T15:04:14.725Z,8.39
2019-03-25T15:06:47.397Z,8.82
2019-03-25T15:09:23.331Z,8.82
2019-03-25T15:11:56.070Z,8.80
2019-03-25T15:14:28.992Z,8.67
2019-03-25T15:17:01.686Z,8.68
2019-03-25T15:19:34.821Z,8.57
2019-03-25T15:22:07.415Z,8.63
2019-03-25T15:24:40.319Z,8.31
2019-03-25T15:27:12.947Z,8.22
2019-03-25T15:29:45.799Z,8.22
2019-03-25T15:32:18.764Z,8.09
2019-03-25T15:34:51.769Z,8.03
2019-03-25T15:37:24.420Z,7.90
2019-03-25T15:39:57.346Z,7.55
2019-03-25T15:42:30.064Z,7.49
2019-03-25T15:45:02.924Z,7.62
2019-03-25T15:47:35.795Z,7.67
2019-03-25T15:50:12.144Z,7.75
2019-03-25T15:52:44.788Z,7.71
2019-03-25T15:55:17.910Z,7.36
2019-03-25T15:57:50.637Z,7.40
2019-03-25T16:00:24.317Z,7.34
2019-03-25T16:02:58.125Z,7.20
2019-03-25T16:05:30.752Z,7.35
2019-03-25T16:08:03.383Z,7.28
2019-03-25T16:10:36.116Z,7.24
2019-03-25T16:13:08.710Z,7.32
2019-03-25T16:15:44.501Z,7.36
2019-03-25T16:18:41.421Z,7.37
2019-03-25T16:21:14.412Z,7.19
2019-03-25T16:23:47.006Z,7.20
2019-03-25T16:26:19.981Z,7.18
2019-03-25T16:28:52.679Z,7.05
2019-03-25T16:31:25.585Z,7.01
2019-03-25T16:33:58.245Z,7.03
2019-03-25T16:36:31.112Z,6.96
2019-03-25T16:39:04.344Z,6.86
2019-03-25T16:41:39.174Z,6.85
2019-03-25T16:44:11.779Z,6.73
2019-03-25T16:46:44.597Z,6.77
2019-03-25T16:49:17.218Z,6.75
2019-03-25T16:51:50.097Z,6.66
2019-03-25T16:54:22.670Z,6.68
2019-03-25T16:56:55.744Z,6.62
2019-03-25T16:59:28.320Z,6.59
2019-03-25T17:02:01.736Z,6.55
2019-03-25T17:04:34.317Z,6.44
2019-03-25T17:07:07.012Z,6.41
2019-03-25T17:09:39.687Z,6.43
2019-03-25T17:12:12.642Z,6.34
2019-03-25T17:14:45.311Z,6.34
2019-03-25T17:17:18.815Z,6.32
2019-03-25T17:19:51.414Z,6.27
2019-03-25T17:22:54.574Z,6.18
2019-03-25T17:25:27.615Z,6.14
2019-03-25T17:28:00.725Z,6.02
2019-03-25T17:30:33.695Z,5.95
2019-03-25T17:33:07.134Z,5.96
2019-03-25T17:35:39.798Z,5.87
2019-03-25T17:38:12.494Z,5.81
2019-03-25T17:40:45.179Z,5.80
2019-03-25T17:43:17.954Z,5.76
2019-03-25T17:45:50.592Z,5.80
2019-03-25T17:48:23.658Z,5.85
2019-03-25T17:50:56.271Z,5.78
2019-03-25T17:53:28.970Z,5.63
2019-03-25T17:56:01.566Z,5.62
2019-03-25T17:58:34.470Z,5.59
2019-03-25T18:01:35.375Z,5.54
2019-03-25T18:04:08.208Z,5.55
2019-03-25T18:06:41.147Z,5.58
2019-03-25T18:09:13.887Z,5.61
2019-03-25T18:11:47.424Z,5.70
2019-03-25T18:14:20.209Z,5.80
2019-03-25T18:16:52.912Z,5.84
2019-03-25T18:19:25.827Z,5.88
2019-03-25T18:21:58.536Z,5.92
2019-03-25T18:24:31.587Z,5.96
2019-03-25T18:27:04.296Z,5.97
2019-03-25T18:29:37.046Z,5.92
2019-03-25T18:32:09.826Z,5.85
2019-03-25T18:34:42.776Z,5.78
2019-03-25T18:37:15.549Z,5.71
2019-03-25T18:39:48.328Z,5.68
2019-03-25T18:42:20.947Z,5.69
2019-03-25T18:44:53.864Z,5.68
2019-03-25T18:47:26.506Z,5.69
2019-03-25T18:49:59.431Z,5.65
2019-03-25T18:52:32.056Z,5.54
2019-03-25T18:55:04.819Z,5.51
2019-03-25T18:57:37.816Z,5.48
2019-03-25T19:00:12.822Z,5.43
2019-03-25T19:02:45.470Z,5.38
2019-03-25T19:05:18.873Z,5.30
2019-03-25T19:07:51.721Z,5.23
2019-03-25T19:10:30.273Z,5.18
2019-03-25T19:13:03.151Z,5.15
2019-03-25T19:15:36.062Z,5.10
2019-03-25T19:18:08.657Z,5.08
2019-03-25T19:20:42.108Z,5.03
2019-03-25T19:23:14.812Z,4.96
2019-03-25T19:25:47.806Z,4.91
2019-03-25T19:28:20.443Z,4.89
2019-03-25T19:30:53.162Z,4.88
2019-03-25T19:33:25.886Z,4.82
2019-03-25T19:35:58.945Z,4.78
2019-03-25T19:38:31.750Z,4.77
2019-03-25T19:41:04.538Z,4.72
2019-03-25T19:43:37.145Z,4.70
2019-03-25T19:46:10.022Z,4.62
2019-03-25T19:48:42.715Z,4.62
2019-03-25T19:51:15.459Z,4.61
2019-03-25T19:53:48.276Z,4.54
2019-03-25T19:56:21.103Z,4.55
2019-03-25T19:58:53.920Z,4.50
2019-03-25T20:01:26.906Z,4.47
2019-03-25T20:03:59.637Z,4.38
2019-03-25T20:06:32.344Z,4.42
2019-03-25T20:09:07.057Z,4.41
2019-03-25T20:11:39.918Z,4.43
2019-03-25T20:14:12.702Z,4.45
2019-03-25T20:16:45.526Z,4.45
2019-03-25T20:19:18.192Z,4.44
2019-03-25T20:21:51.001Z,4.41
2019-03-25T20:24:23.666Z,4.37
2019-03-25T20:26:56.720Z,4.35
2019-03-25T20:29:29.463Z,4.33
2019-03-25T20:32:02.638Z,4.35
2019-03-25T20:34:37.708Z,4.35
2019-03-25T20:37:10.275Z,4.38
2019-03-25T20:39:43.234Z,4.34
2019-03-25T20:42:16.226Z,4.21
2019-03-25T20:44:48.923Z,4.20
2019-03-25T20:47:21.891Z,4.21
2019-03-25T20:49:54.593Z,4.20
2019-03-25T20:52:27.374Z,4.19
2019-03-25T20:55:00.468Z,4.16
2019-03-25T20:57:33.744Z,4.11
2019-03-25T21:00:08.503Z,4.04
2019-03-25T21:02:45.406Z,4.00
2019-03-25T21:05:17.646Z,3.96
2019-03-25T21:07:51.809Z,3.93
2019-03-25T21:10:24.602Z,3.88
2019-03-25T21:12:57.334Z,3.82
2019-03-25T21:15:29.995Z,3.78
2019-03-25T21:18:02.831Z,3.72
2019-03-25T21:20:35.467Z,3.72
2019-03-25T21:23:08.212Z,3.68
2019-03-25T21:25:40.956Z,3.62
2019-03-25T21:28:13.916Z,3.59
2019-03-25T21:30:48.094Z,3.54
2019-03-25T21:33:22.343Z,3.51
2019-03-25T21:35:56.305Z,3.53
2019-03-25T21:38:29.003Z,3.52
2019-03-25T21:41:01.725Z,3.49
2019-03-25T21:43:34.424Z,3.47
2019-03-25T21:46:07.099Z,3.41
2019-03-25T21:48:40.139Z,3.41
2019-03-25T21:51:12.848Z,3.43
2019-03-25T21:53:45.995Z,3.43
2019-03-25T21:56:18.807Z,3.43
2019-03-25T21:58:51.635Z,3.36
2019-03-25T22:01:24.389Z,3.31
2019-03-25T22:03:57.156Z,3.27
2019-03-25T22:06:29.838Z,3.27
2019-03-25T22:09:02.968Z,3.25
2019-03-25T22:11:35.647Z,3.25
2019-03-25T22:14:08.570Z,3.21
2019-03-25T22:16:41.286Z,3.21
2019-03-25T22:19:14.260Z,3.16
2019-03-25T22:21:46.883Z,3.15
2019-03-25T22:24:20.211Z,3.13
2019-03-25T22:26:52.863Z,3.08
2019-03-25T22:29:25.776Z,3.04
2019-03-25T22:31:58.487Z,2.98
2019-03-25T22:34:31.355Z,2.96
2019-03-25T22:37:03.943Z,2.95
2019-03-25T22:39:37.318Z,2.95
2019-03-25T22:42:09.903Z,2.97
2019-03-25T22:44:42.778Z,2.91
2019-03-25T22:47:15.402Z,2.88
2019-03-25T22:49:48.112Z,2.88
2019-03-25T22:52:20.799Z,2.83
2019-03-25T22:54:53.939Z,2.79
2019-03-25T22:57:26.533Z,2.78
2019-03-25T22:59:59.394Z,2.81
2019-03-25T23:02:31.959Z,2.80
2019-03-25T23:05:04.952Z,2.79
2019-03-25T23:07:37.542Z,2.75
2019-03-25T23:10:10.826Z,2.76
2019-03-25T23:12:43.461Z,2.72
2019-03-25T23:15:16.280Z,2.74
2019-03-25T23:17:48.866Z,2.73
2019-03-25T23:20:21.743Z,2.69
2019-03-25T23:22:54.332Z,2.68
2019-03-25T23:25:27.532Z,2.68
2019-03-25T23:28:00.104Z,2.65
2019-03-25T23:30:32.825Z,2.66
2019-03-25T23:33:06.510Z,2.61
2019-03-25T23:35:39.373Z,2.60
2019-03-25T23:38:12.051Z,2.57
2019-03-25T23:40:45.244Z,2.56
2019-03-25T23:43:17.821Z,2.54
2019-03-25T23:45:50.506Z,2.50
2019-03-25T23:48:23.149Z,2.46
2019-03-25T23:50:56.062Z,2.43
2019-03-25T23:53:28.694Z,2.42
2019-03-25T23:56:01.935Z,2.37
2019-03-25T23:58:34.513Z,2.35
